Here is the Quick Look data you requested

The Data originates at the National Weather Service, and is made available here by the UAlbany Department of Atmospheric and Environmental Sciences

Surface Observations

KPIT 191051Z 29017G24KT 10SM OVC020 04/02 A2965 RMK AO2 PK WND 29028/1017
 SLP050 T00390017=
KPIT 191151Z 28018G25KT 10SM FEW013 SCT019 OVC029 03/01 A2968 RMK AO2 SLP062
 60002 70121 T00330011 10056 20028 51039=
KPIT 191251Z 29010KT 10SM FEW014 BKN025 OVC032 03/01 A2972 RMK AO2
 RAB18E49SNB21E42 SLP075 P0000 T00280011=
KPIT 191319Z 27010KT 10SM FEW018 SCT026 OVC036 03/01 A2974 RMK AO2 T00280006=
KPIT 191351Z 29013KT 2SM R28R/6000VP6000FT -SNRA BR SCT018 BKN029 OVC038 03/01
 A2976 RMK AO2 RAB42SNB48 SLP089 VIS W-N 3 P0000 T00280006=
KPIT 191357Z 28011KT 8SM R28R/6000VP6000FT -RASN SCT018 BKN026 OVC038 02/01
 A2976 RMK AO2 VIS SE 3 P0000 T00170006=
KPIT 191451Z 28010KT 10SM BKN028 OVC041 03/00 A2978 RMK AO2 RAE08SNE02 SLP095
 P0001 60001 T00280000 51033=
KPIT 191536Z 28008KT 10SM FEW021 SCT027 OVC041 03/M01 A2979 RMK AO2 SNB03E19
 P0000 T00331006=
KPIT 191551Z 27011KT 10SM FEW021 SCT028 OVC043 03/M01 A2980 RMK AO2 SNB03E19
 SLP100 P0000 T00331006=
KPIT 191651Z 29021G27KT 10SM SCT029 BKN037 03/M02 A2981 RMK AO2 PK WND
 29027/1646 SLP106 T00281022=
KPIT 191751Z 28019G26KT 10SM FEW029 BKN038 BKN060 04/M02 A2980 RMK AO2 PK WND
 27026/1750 SLP104 60001 T00391022 10044 20017 50005=
KPIT 191851Z 28013KT 10SM SCT032 OVC060 04/M02 A2980 RMK AO2 SNB18E51 SLP106
 P0000 T00391022=
KPIT 191951Z 27010KT 10SM -SN BKN034 BKN049 OVC055 04/M02 A2981 RMK AO2 SNB07
 SLP109 P0000 T00391022=
KPIT 192043Z 29013G19KT 8SM -SN BKN023 OVC034 03/M01 A2983 RMK AO2 P0000
 T00281011=
KPIT 192051Z 30014KT 5SM -SN FEW012 BKN023 OVC030 02/M01 A2984 RMK AO2 SLP120
 P0000 60000 T00221011 53013=
KPIT 192151Z 29007KT 10SM BKN024 BKN033 OVC070 02/00 A2985 RMK AO2 SNE51 SLP125
 P0001 T00170000=
KPIT 192230Z 27011KT 9SM -SN SCT027 BKN036 OVC060 02/M02 A2986 RMK AO2 SNB2159
 P0000 T00171017=
KPIT 192251Z 29015KT 10SM -SN FEW033 BKN046 OVC070 02/M02 A2987 RMK AO2 SNB2159
 SLP132 P0000 T00171022=
KPIT 192351Z 28010G21KT 9SM -SN SCT024 BKN033 OVC065 02/M02 A2990 RMK AO2
 SLP143 SCT V BKN P0000 60001 T00171017 10044 20011 53022=
KPIT 200027Z 27013G18KT 2SM -SN BKN019 BKN038 OVC046 01/M02 A2992 RMK AO2 P0000
 T00111017=
KPIT 200036Z 29014G19KT 8SM -SN SCT017 BKN032 OVC050 01/M02 A2992 RMK AO2 P0000
 T00061017=
KPIT 200051Z 28014G20KT 10SM -SN FEW024 SCT038 OVC060 01/M02 A2992 RMK AO2
 SLP150 P0000 T00061017=
KPIT 200151Z 28016G24KT 10SM OVC048 01/M04 A2995 RMK AO2 SNE45 SLP160 P0000
 T00061039=
KPIT 200251Z 27014KT 10SM FEW045 BKN060 00/M06 A2996 RMK AO2 SLP165 60000
 T00001056 51020=
KPIT 200351Z 27011KT 9SM -SN OVC040 01/M06 A2999 RMK AO2 SNB25 SLP171 P0000
 T00061056=
KPIT 200451Z 27015G23KT 10SM OVC038 01/M06 A3000 RMK AO2 SNE08 SLP178 P0000
 T00061061 400830000=
KPIT 200551Z 26014G19KT 10SM FEW032 OVC040 00/M07 A3002 RMK AO2 SLP182 60000
 T00001067 10011 20000 51018=
KPIT 200651Z 28013KT 10SM BKN035 OVC045 M01/M07 A3004 RMK AO2 SLP192 T10061067=
KPIT 200751Z 26006KT 10SM OVC035 M01/M07 A3007 RMK AO2 SLP199 T10061067=
KPIT 200851Z 25008G16KT 10SM FEW028 OVC036 M01/M05 A3007 RMK AO2 SLP203
 T10061050 51018=
KPIT 200951Z 24010KT 10SM FEW025 OVC035 M01/M06 A3009 RMK AO2 SLP210 T10061056=
KPIT 201051Z 22007KT 10SM SCT032 BKN040 M01/M06 A3011 RMK AO2 SLP216 T10111061=
KPIT 201151Z 23008KT 10SM FEW032 FEW130 M02/M06 A3013 RMK AO2 SLP225 70002
 T10221061 10000 21022 53020=
KPIT 201251Z 22007KT 10SM FEW130 FEW250 M02/M06 A3015 RMK AO2 SLP231 T10221061=
KPIT 201351Z 22011KT 10SM FEW018 FEW130 SCT250 M02/M06 A3016 RMK AO2 SLP234
 T10171056=
KPIT 201451Z 22010KT 10SM FEW022 FEW130 SCT250 00/M06 A3016 RMK AO2 SLP234
 T00001056 50009=
KPIT 201551Z 21013G18KT 10SM FEW120 FEW250 01/M06 A3015 RMK AO2 SLP231
 T00061056=
KPIT 201651Z 21012G18KT 10SM SCT250 02/M06 A3013 RMK AO2 SLP221 T00221056=
KPIT 201751Z 23011KT 10SM SCT250 04/M06 A3010 RMK AO2 SLP210 T00391056 10039
 21022 58020=
KPIT 201851Z 23010G18KT 10SM FEW250 04/M06 A3008 RMK AO2 SLP204 T00441056=
KPIT 201951Z 21011KT 10SM FEW250 06/M06 A3007 RMK AO2 SLP200 T00561056=
KPIT 202051Z 21013G20KT 10SM FEW250 06/M06 A3007 RMK AO2 SLP200 T00561056 56010=
KPIT 202151Z 21009KT 10SM FEW250 06/M06 A3007 RMK AO2 SLP200 T00561056=
KPIT 202251Z 19005KT 10SM FEW250 04/M05 A3007 RMK AO2 SLP202 T00441050=